Time;durP1;ratioP1;P1;durP2;ratioP2;P2;SDS_P1;SDS_P2;PMS_P1;PMS_P2;Temp;Humidity;BMP_temperature;BMP_pressure;BME280_temperature;BME280_humidity;BME280_pressure;Samples;Min_cycle;Max_cycle;Signal;HPM_P1;HPM_P2
2022/03/20 00:01:39;;;;;;;7.92;1.46;;;;;;;;;;5303568;28;20020;-68
2022/03/20 00:04:10;;;;;;;5.56;1.32;;;;;;;;;;5303631;28;20135;-68
2022/03/20 00:06:42;;;;;;;5.53;1.58;;;;;;;;;;5303108;28;20019;-68
2022/03/20 00:09:13;;;;;;;4.97;1.50;;;;;;;;;;5303875;28;20255;-68
2022/03/20 00:11:44;;;;;;;6.32;1.58;;;;;;;;;;5303461;28;20016;-68
2022/03/20 00:14:15;;;;;;;5.72;1.45;;;;;;;;;;5302806;28;20106;-69
2022/03/20 00:16:46;;;;;;;8.13;1.95;;;;;;;;;;5303374;28;20066;-69
2022/03/20 00:19:19;;;;;;;5.60;1.94;;;;;;;;;;5303839;28;20024;-67
2022/03/20 00:21:50;;;;;;;7.03;2.05;;;;;;;;;;5302397;28;20035;-67
2022/03/20 00:24:21;;;;;;;4.50;1.90;;;;;;;;;;5303447;28;20028;-67
2022/03/20 00:26:56;;;;;;;6.22;2.10;;;;;;;;;;5302859;28;20016;-68
2022/03/20 00:29:29;;;;;;;8.02;2.58;;;;;;;;;;5303501;28;20360;-67
2022/03/20 00:32:00;;;;;;;5.97;2.10;;;;;;;;;;5303297;28;20049;-68
2022/03/20 00:34:32;;;;;;;8.12;2.54;;;;;;;;;;5302188;28;20062;-68
2022/03/20 00:37:03;;;;;;;8.07;2.50;;;;;;;;;;5303057;28;20020;-68
2022/03/20 00:39:35;;;;;;;8.75;2.80;;;;;;;;;;5303311;28;20505;-68
2022/03/20 00:42:06;;;;;;;8.52;3.17;;;;;;;;;;5302347;28;20118;-68
2022/03/20 00:44:37;;;;;;;9.15;3.10;;;;;;;;;;5302936;28;20031;-68
2022/03/20 00:47:08;;;;;;;5.14;2.84;;;;;;;;;;5303019;28;20039;-68
2022/03/20 00:49:41;;;;;;;6.10;2.53;;;;;;;;;;5302067;28;20027;-69
2022/03/20 00:52:12;;;;;;;7.07;2.78;;;;;;;;;;5302991;28;20132;-68
2022/03/20 00:54:43;;;;;;;7.65;3.08;;;;;;;;;;5301774;28;20032;-68
2022/03/20 00:57:15;;;;;;;5.80;3.13;;;;;;;;;;5301920;28;20489;-68
2022/03/20 00:59:46;;;;;;;8.10;4.25;;;;;;;;;;5302330;28;20015;-68
2022/03/20 01:02:17;;;;;;;9.07;3.50;;;;;;;;;;5301792;28;20039;-68
2022/03/20 01:04:49;;;;;;;9.55;4.15;;;;;;;;;;5302331;28;20079;-68
2022/03/20 01:07:20;;;;;;;19.20;4.03;;;;;;;;;;5303005;28;20076;-68
2022/03/20 01:09:51;;;;;;;11.15;4.40;;;;;;;;;;5301478;28;20430;-67
2022/03/20 01:12:22;;;;;;;8.72;3.84;;;;;;;;;;5302225;28;20027;-68
2022/03/20 01:14:53;;;;;;;10.35;4.22;;;;;;;;;;5302539;28;20399;-67
2022/03/20 01:17:24;;;;;;;8.70;4.24;;;;;;;;;;5301737;28;20020;-68
2022/03/20 01:19:56;;;;;;;11.80;4.82;;;;;;;;;;5302066;28;20407;-68
2022/03/20 01:22:27;;;;;;;10.55;4.75;;;;;;;;;;5302736;28;20020;-68
2022/03/20 01:24:58;;;;;;;6.80;4.50;;;;;;;;;;5301094;28;20042;-68
2022/03/20 01:27:29;;;;;;;7.55;4.35;;;;;;;;;;5302418;28;20022;-68
2022/03/20 01:30:01;;;;;;;9.30;4.26;;;;;;;;;;5302488;28;20027;-68
2022/03/20 01:32:32;;;;;;;11.02;4.95;;;;;;;;;;5301475;28;20089;-68
2022/03/20 01:35:04;;;;;;;11.82;5.20;;;;;;;;;;5302368;28;20016;-69
2022/03/20 01:37:36;;;;;;;12.25;5.03;;;;;;;;;;5301462;28;20299;-69
2022/03/20 01:40:08;;;;;;;7.70;4.95;;;;;;;;;;5302468;28;20023;-69
2022/03/20 01:42:39;;;;;;;11.75;5.60;;;;;;;;;;5302175;28;20024;-69
2022/03/20 01:45:14;;;;;;;10.23;5.78;;;;;;;;;;5301324;28;20070;-68
2022/03/20 01:47:47;;;;;;;10.48;6.45;;;;;;;;;;5301675;28;20057;-69
2022/03/20 01:50:23;;;;;;;12.80;6.28;;;;;;;;;;5302381;28;20024;-68
2022/03/20 01:52:54;;;;;;;13.57;7.35;;;;;;;;;;5300831;28;20099;-68
2022/03/20 01:55:26;;;;;;;12.00;7.15;;;;;;;;;;5302279;28;20518;-69
2022/03/20 01:57:58;;;;;;;13.07;7.57;;;;;;;;;;5301667;28;20020;-69
2022/03/20 02:00:29;;;;;;;13.63;8.15;;;;;;;;;;5301208;28;20643;-69
2022/03/20 02:03:00;;;;;;;18.90;8.90;;;;;;;;;;5301779;28;20016;-69
2022/03/20 02:05:31;;;;;;;15.18;9.52;;;;;;;;;;5303318;28;20359;-69
2022/03/20 02:08:03;;;;;;;17.65;9.43;;;;;;;;;;5306163;28;20458;-69
2022/03/20 02:10:37;;;;;;;15.27;8.55;;;;;;;;;;5305931;28;20030;-69
2022/03/20 02:13:08;;;;;;;18.13;10.80;;;;;;;;;;5304986;28;20105;-69
2022/03/20 02:15:39;;;;;;;17.73;10.90;;;;;;;;;;5306091;28;20020;-68
2022/03/20 02:18:10;;;;;;;16.10;10.32;;;;;;;;;;5306119;28;20382;-69
2022/03/20 02:20:48;;;;;;;16.52;10.48;;;;;;;;;;5305184;28;20020;-69
2022/03/20 02:23:19;;;;;;;19.73;12.20;;;;;;;;;;5305872;28;20024;-69
2022/03/20 02:25:51;;;;;;;16.86;11.48;;;;;;;;;;5305633;28;20051;-69
2022/03/20 02:28:22;;;;;;;18.92;11.85;;;;;;;;;;5305352;28;20089;-69
2022/03/20 02:30:53;;;;;;;19.50;11.48;;;;;;;;;;5305354;28;20465;-69
2022/03/20 02:33:27;;;;;;;15.76;10.88;;;;;;;;;;5305899;28;20020;-68
2022/03/20 02:35:58;;;;;;;18.17;12.93;;;;;;;;;;5304433;28;20366;-69
2022/03/20 02:38:30;;;;;;;20.70;12.38;;;;;;;;;;5305593;28;20073;-69
2022/03/20 02:41:14;;;;;;;19.73;12.73;;;;;;;;;;5304630;28;20421;-69
2022/03/20 02:43:49;;;;;;;18.95;13.60;;;;;;;;;;5305081;28;20016;-69
2022/03/20 02:46:21;;;;;;;22.85;12.75;;;;;;;;;;5305590;28;20036;-69
2022/03/20 02:48:53;;;;;;;20.92;12.73;;;;;;;;;;5304487;28;20012;-69
2022/03/20 02:51:24;;;;;;;18.98;12.45;;;;;;;;;;5305622;28;20012;-68
2022/03/20 02:53:57;;;;;;;19.88;13.73;;;;;;;;;;5304855;28;20024;-69
2022/03/20 02:56:29;;;;;;;22.15;13.82;;;;;;;;;;5304724;28;20039;-68
2022/03/20 02:59:02;;;;;;;19.65;13.27;;;;;;;;;;5305382;28;20381;-69
2022/03/20 03:01:33;;;;;;;23.63;14.20;;;;;;;;;;5305213;28;20016;-68
2022/03/20 03:04:04;;;;;;;23.65;15.23;;;;;;;;;;5304115;28;20028;-68
2022/03/20 03:06:36;;;;;;;21.88;14.40;;;;;;;;;;5304925;28;20095;-68
2022/03/20 03:11:58;;;;;;;23.17;15.18;;;;;;;;;;5304607;28;20028;-68
2022/03/20 03:17:27;;;;;;;22.23;14.18;;;;;;;;;;5303569;28;20036;-69
2022/03/20 03:19:59;;;;;;;23.65;14.63;;;;;;;;;;5304604;28;20067;-69
2022/03/20 03:22:31;;;;;;;24.50;15.20;;;;;;;;;;5304729;28;20020;-69
2022/03/20 03:25:02;;;;;;;26.38;15.07;;;;;;;;;;5303725;28;20032;-68
2022/03/20 03:27:34;;;;;;;26.67;15.27;;;;;;;;;;5304616;28;20024;-69
2022/03/20 03:30:05;;;;;;;23.73;15.80;;;;;;;;;;5303435;28;20103;-68
2022/03/20 03:32:36;;;;;;;25.42;15.60;;;;;;;;;;5304662;28;20012;-69
2022/03/20 03:38:01;;;;;;;21.77;15.52;;;;;;;;;;5303938;28;20044;-68
2022/03/20 03:40:32;;;;;;;25.63;17.23;;;;;;;;;;5304177;28;20024;-68
2022/03/20 03:43:03;;;;;;;21.45;15.85;;;;;;;;;;5304320;28;20175;-68
2022/03/20 03:45:34;;;;;;;24.67;16.92;;;;;;;;;;5303203;28;20050;-69
2022/03/20 03:48:06;;;;;;;25.45;17.60;;;;;;;;;;5304230;28;20048;-67
2022/03/20 03:50:39;;;;;;;27.40;16.23;;;;;;;;;;5303812;28;20417;-68
2022/03/20 03:53:10;;;;;;;25.63;17.15;;;;;;;;;;5303068;28;20016;-69
2022/03/20 03:55:44;;;;;;;24.30;15.80;;;;;;;;;;5304074;28;20485;-68
2022/03/20 03:58:15;;;;;;;28.58;18.05;;;;;;;;;;5303659;28;20031;-69
2022/03/20 04:00:46;;;;;;;23.94;16.80;;;;;;;;;;5303694;28;20016;-69
2022/03/20 04:03:18;;;;;;;27.10;18.08;;;;;;;;;;5304013;28;20038;-68
2022/03/20 04:05:49;;;;;;;25.38;16.58;;;;;;;;;;5302662;28;20032;-68
2022/03/20 04:08:20;;;;;;;25.13;16.08;;;;;;;;;;5303800;28;20012;-69
2022/03/20 04:10:52;;;;;;;27.18;16.54;;;;;;;;;;5303192;28;20161;-69
2022/03/20 04:13:23;;;;;;;23.10;16.95;;;;;;;;;;5302943;28;20044;-68
2022/03/20 04:15:54;;;;;;;27.64;17.46;;;;;;;;;;5302999;28;20123;-68
2022/03/20 04:18:25;;;;;;;25.58;16.64;;;;;;;;;;5303829;28;20028;-69
2022/03/20 04:20:56;;;;;;;23.58;16.63;;;;;;;;;;5302144;28;20023;-68
2022/03/20 04:23:45;;;;;;;29.90;17.30;;;;;;;;;;5303772;28;20512;-67
2022/03/20 04:26:17;;;;;;;;;;;;;;;;;;5303203;28;20027;-67
2022/03/20 04:28:49;;;;;;;25.58;17.63;;;;;;;;;;5302821;28;19904;-67
2022/03/20 04:31:20;;;;;;;25.55;17.83;;;;;;;;;;5303425;28;20022;-68
2022/03/20 04:33:53;;;;;;;25.50;18.17;;;;;;;;;;5302177;28;20390;-68
2022/03/20 04:36:25;;;;;;;27.90;17.60;;;;;;;;;;5303323;28;20020;-67
2022/03/20 04:38:59;;;;;;;27.48;17.60;;;;;;;;;;5302853;28;20423;-69
2022/03/20 04:41:30;;;;;;;26.48;15.93;;;;;;;;;;5302354;28;20016;-68
2022/03/20 04:44:01;;;;;;;27.67;18.85;;;;;;;;;;5303121;28;20141;-69
2022/03/20 04:46:32;;;;;;;26.23;18.65;;;;;;;;;;5302918;28;20024;-68
2022/03/20 05:00:23;;;;;;;25.60;17.70;;;;;;;;;;5303138;28;20032;-68
2022/03/20 05:02:54;;;;;;;26.17;17.13;;;;;;;;;;5301516;28;20327;-69
2022/03/20 05:05:28;;;;;;;28.33;18.98;;;;;;;;;;5302781;28;20057;-69
2022/03/20 05:07:59;;;;;;;25.77;17.38;;;;;;;;;;5302169;28;20417;-69
2022/03/20 05:13:20;;;;;;;27.88;18.73;;;;;;;;;;5303029;28;20051;-68
2022/03/20 05:15:57;;;;;;;27.68;18.06;;;;;;;;;;5301375;28;20030;-68
2022/03/20 05:18:29;;;;;;;30.30;18.90;;;;;;;;;;5302693;28;20016;-69
2022/03/20 05:21:01;;;;;;;26.67;18.70;;;;;;;;;;5302746;28;20424;-68
2022/03/20 05:23:33;;;;;;;30.10;18.00;;;;;;;;;;5301440;28;20028;-68
2022/03/20 05:26:04;;;;;;;27.73;19.07;;;;;;;;;;5302517;28;20382;-68
2022/03/20 05:28:35;;;;;;;28.73;19.00;;;;;;;;;;5302252;28;20107;-68
2022/03/20 05:31:06;;;;;;;25.50;16.77;;;;;;;;;;5301544;28;20016;-69
2022/03/20 05:33:38;;;;;;;26.53;18.80;;;;;;;;;;5301944;28;20082;-68
2022/03/20 05:36:09;;;;;;;30.57;18.93;;;;;;;;;;5301982;28;20487;-68
2022/03/20 05:38:40;;;;;;;28.24;18.82;;;;;;;;;;5301116;28;20399;-68
2022/03/20 05:44:01;;;;;;;30.00;18.77;;;;;;;;;;5301717;28;20036;-68
2022/03/20 05:46:32;;;;;;;26.46;17.84;;;;;;;;;;5302118;28;20016;-68
2022/03/20 05:49:05;;;;;;;28.35;18.50;;;;;;;;;;5302027;28;20402;-68
2022/03/20 05:51:37;;;;;;;34.22;18.92;;;;;;;;;;5301238;28;20017;-68
2022/03/20 05:54:08;;;;;;;25.60;16.73;;;;;;;;;;5302384;28;20054;-68
2022/03/20 05:59:29;;;;;;;27.30;17.97;;;;;;;;;;5301515;28;20032;-68
2022/03/20 06:02:00;;;;;;;26.57;17.30;;;;;;;;;;5301838;28;20017;-68
2022/03/20 06:04:33;;;;;;;26.73;18.23;;;;;;;;;;5301690;28;20119;-68
2022/03/20 06:07:04;;;;;;;29.90;17.83;;;;;;;;;;5301904;28;20024;-68
2022/03/20 06:09:36;;;;;;;28.93;19.07;;;;;;;;;;5301937;28;20082;-69
2022/03/20 06:12:07;;;;;;;28.10;17.57;;;;;;;;;;5301018;28;20111;-69
2022/03/20 06:14:38;;;;;;;22.97;16.23;;;;;;;;;;5301420;28;20040;-68
2022/03/20 06:17:10;;;;;;;28.87;17.20;;;;;;;;;;5301931;28;20027;-68
2022/03/20 06:19:44;;;;;;;25.68;17.52;;;;;;;;;;5300932;28;20024;-68
2022/03/20 06:22:15;;;;;;;25.80;16.85;;;;;;;;;;5301975;28;20074;-68
2022/03/20 06:24:46;;;;;;;25.94;16.90;;;;;;;;;;5301098;28;20039;-68
2022/03/20 06:27:18;;;;;;;29.52;17.60;;;;;;;;;;5301243;28;20035;-68
2022/03/20 06:29:49;;;;;;;24.00;16.40;;;;;;;;;;5301408;28;20103;-68
2022/03/20 06:32:20;;;;;;;25.30;15.64;;;;;;;;;;5302057;28;20031;-68
2022/03/20 06:34:52;;;;;;;28.52;17.63;;;;;;;;;;5300451;28;20017;-68
2022/03/20 06:37:23;;;;;;;26.60;16.42;;;;;;;;;;5301827;28;20076;-68
2022/03/20 06:39:54;;;;;;;24.50;15.98;;;;;;;;;;5300559;28;20070;-68
2022/03/20 06:42:27;;;;;;;23.56;15.44;;;;;;;;;;5301863;28;20492;-68
2022/03/20 06:44:59;;;;;;;22.63;16.10;;;;;;;;;;5301150;28;20020;-68
2022/03/20 06:47:33;;;;;;;25.17;15.63;;;;;;;;;;5300778;28;20024;-68
2022/03/20 06:50:05;;;;;;;25.30;16.45;;;;;;;;;;5301378;28;20474;-68
2022/03/20 06:52:39;;;;;;;24.50;16.20;;;;;;;;;;5303439;28;20012;-68
2022/03/20 06:55:15;;;;;;;25.02;16.00;;;;;;;;;;5304523;28;20024;-69
2022/03/20 06:57:47;;;;;;;22.10;15.38;;;;;;;;;;5304381;28;20020;-68
2022/03/20 07:00:18;;;;;;;21.70;15.02;;;;;;;;;;5305123;28;20378;-68
2022/03/20 07:02:50;;;;;;;23.45;15.02;;;;;;;;;;5303664;28;20020;-68
2022/03/20 07:05:21;;;;;;;21.55;14.73;;;;;;;;;;5305196;28;20032;-68
2022/03/20 07:07:53;;;;;;;23.02;15.80;;;;;;;;;;5303803;28;20020;-68
2022/03/20 07:10:25;;;;;;;24.73;15.82;;;;;;;;;;5305133;28;20103;-68
2022/03/20 07:15:48;;;;;;;22.67;14.85;;;;;;;;;;5303701;28;20494;-68
2022/03/20 07:18:20;;;;;;;26.10;16.20;;;;;;;;;;5305007;28;20061;-69
2022/03/20 07:20:51;;;;;;;22.45;14.95;;;;;;;;;;5304277;28;20016;-68
2022/03/20 07:23:22;;;;;;;27.02;15.95;;;;;;;;;;5304049;28;20027;-70
2022/03/20 07:31:33;;;;;;;21.45;14.93;;;;;;;;;;5304590;28;20036;-67
2022/03/20 07:34:04;;;;;;;22.63;14.45;;;;;;;;;;5304448;28;20028;-69
2022/03/20 07:36:36;;;;;;;24.30;14.05;;;;;;;;;;5303742;28;20048;-68
2022/03/20 07:39:07;;;;;;;22.83;14.25;;;;;;;;;;5303928;28;20047;-69
2022/03/20 07:41:38;;;;;;;20.02;14.43;;;;;;;;;;5304118;28;20019;-68
2022/03/20 07:44:10;;;;;;;21.67;13.73;;;;;;;;;;5303131;28;20023;-69
2022/03/20 07:46:41;;;;;;;21.38;13.57;;;;;;;;;;5303810;28;20106;-68
2022/03/20 07:49:12;;;;;;;21.52;14.43;;;;;;;;;;5304025;28;20469;-68
2022/03/20 07:51:44;;;;;;;22.60;14.32;;;;;;;;;;5303206;28;20111;-68
2022/03/20 07:54:15;;;;;;;19.60;14.00;;;;;;;;;;5304134;28;20020;-68
2022/03/20 07:56:47;;;;;;;19.70;13.35;;;;;;;;;;5303519;28;20141;-69
2022/03/20 07:59:19;;;;;;;23.73;15.05;;;;;;;;;;5303364;28;20032;-68
2022/03/20 08:01:50;;;;;;;20.13;12.88;;;;;;;;;;5303440;28;20201;-68
2022/03/20 08:04:22;;;;;;;22.44;15.24;;;;;;;;;;5302871;28;20036;-68
2022/03/20 08:06:53;;;;;;;21.50;13.65;;;;;;;;;;5303341;28;20020;-68
2022/03/20 08:09:27;;;;;;;20.15;13.05;;;;;;;;;;5303945;28;20133;-68
2022/03/20 08:11:59;;;;;;;24.45;13.70;;;;;;;;;;5302646;28;20016;-68
2022/03/20 08:14:30;;;;;;;20.65;14.10;;;;;;;;;;5303350;28;20044;-69
2022/03/20 08:17:01;;;;;;;22.65;14.55;;;;;;;;;;5303090;28;20012;-68
2022/03/20 08:19:32;;;;;;;21.68;13.80;;;;;;;;;;5302354;28;20118;-67
2022/03/20 08:22:05;;;;;;;19.92;13.42;;;;;;;;;;5303263;28;20016;-68
2022/03/20 08:24:37;;;;;;;19.80;13.13;;;;;;;;;;5303380;28;20562;-67
2022/03/20 08:27:08;;;;;;;22.85;13.95;;;;;;;;;;5302447;28;20103;-67
2022/03/20 08:29:40;;;;;;;25.65;14.93;;;;;;;;;;5303286;28;20043;-68
2022/03/20 08:32:11;;;;;;;21.25;13.30;;;;;;;;;;5302930;28;20115;-68
2022/03/20 08:34:43;;;;;;;21.05;12.88;;;;;;;;;;5302522;28;20095;-67
2022/03/20 08:37:14;;;;;;;20.42;13.16;;;;;;;;;;5302723;28;20403;-68
2022/03/20 08:39:45;;;;;;;22.80;13.25;;;;;;;;;;5297692;28;20397;-68
2022/03/20 08:42:16;;;;;;;20.32;12.94;;;;;;;;;;5302577;28;20038;-68
2022/03/20 08:44:50;;;;;;;20.14;12.66;;;;;;;;;;5302058;28;20039;-67
2022/03/20 08:47:22;;;;;;;20.85;14.18;;;;;;;;;;5302508;28;20108;-68
2022/03/20 08:49:53;;;;;;;18.52;13.08;;;;;;;;;;5301936;28;20106;-68
2022/03/20 08:52:24;;;;;;;23.72;13.90;;;;;;;;;;5302954;28;20012;-68
2022/03/20 08:54:56;;;;;;;22.30;14.48;;;;;;;;;;5301585;28;20054;-68
2022/03/20 08:57:28;;;;;;;18.92;13.02;;;;;;;;;;5303063;28;20090;-68
2022/03/20 08:59:59;;;;;;;21.63;14.18;;;;;;;;;;5302449;28;20202;-68
2022/03/20 09:02:30;;;;;;;20.88;13.74;;;;;;;;;;5301821;28;20031;-68
2022/03/20 09:05:03;;;;;;;21.58;14.00;;;;;;;;;;5302501;28;20125;-68
2022/03/20 09:07:34;;;;;;;24.65;15.38;;;;;;;;;;5301410;28;20366;-69
2022/03/20 09:10:06;;;;;;;21.40;14.20;;;;;;;;;;5302624;28;20032;-68
2022/03/20 09:12:39;;;;;;;25.17;13.80;;;;;;;;;;5302555;28;20044;-68
2022/03/20 09:15:12;;;;;;;22.65;14.48;;;;;;;;;;5300803;28;20031;-68
2022/03/20 09:20:36;;;;;;;22.58;15.32;;;;;;;;;;5302603;28;20044;-67
2022/03/20 09:23:08;;;;;;;21.23;13.25;;;;;;;;;;5301738;28;20108;-67
2022/03/20 09:25:39;;;;;;;24.25;15.45;;;;;;;;;;5302197;28;20118;-67
2022/03/20 09:28:11;;;;;;;22.77;14.00;;;;;;;;;;5302126;28;20016;-68
2022/03/20 09:30:43;;;;;;;22.52;14.90;;;;;;;;;;5301154;28;20031;-68
2022/03/20 09:33:14;;;;;;;19.80;13.82;;;;;;;;;;5302334;28;20008;-68
2022/03/20 09:35:45;;;;;;;21.30;14.45;;;;;;;;;;5300948;28;20031;-68
2022/03/20 09:38:18;;;;;;;19.80;13.73;;;;;;;;;;5302389;28;20023;-68
2022/03/20 09:40:50;;;;;;;20.70;14.65;;;;;;;;;;5301575;28;20113;-68
2022/03/20 09:43:21;;;;;;;25.85;16.02;;;;;;;;;;5301704;28;20446;-68
2022/03/20 09:45:52;;;;;;;20.52;15.26;;;;;;;;;;5301749;28;20024;-68
2022/03/20 09:48:26;;;;;;;24.83;14.98;;;;;;;;;;5302316;28;20017;-68
2022/03/20 09:51:00;;;;;;;22.63;15.30;;;;;;;;;;5300960;28;20111;-68
2022/03/20 09:53:32;;;;;;;23.00;14.95;;;;;;;;;;5302158;28;20024;-68
2022/03/20 09:56:06;;;;;;;22.65;14.52;;;;;;;;;;5302135;28;20035;-68
2022/03/20 09:58:37;;;;;;;19.92;14.63;;;;;;;;;;5298454;28;20016;-68
2022/03/20 10:01:08;;;;;;;21.52;15.23;;;;;;;;;;5304354;28;20028;-69
2022/03/20 10:03:39;;;;;;;26.35;16.17;;;;;;;;;;5300675;28;20020;-68
2022/03/20 10:06:17;;;;;;;24.67;16.08;;;;;;;;;;5297469;28;20020;-68
2022/03/20 10:08:55;;;;;;;23.47;15.87;;;;;;;;;;5300755;28;20457;-68
2022/03/20 10:11:26;;;;;;;24.13;16.88;;;;;;;;;;5300448;28;20028;-69
2022/03/20 10:14:09;;;;;;;26.95;16.52;;;;;;;;;;5299668;28;20058;-68
2022/03/20 10:16:45;;;;;;;23.02;16.15;;;;;;;;;;5300834;28;20099;-68
2022/03/20 10:19:22;;;;;;;28.50;17.92;;;;;;;;;;5299786;28;20054;-67
2022/03/20 10:21:57;;;;;;;24.73;16.52;;;;;;;;;;5303650;28;20723;-68
2022/03/20 10:24:29;;;;;;;24.98;18.27;;;;;;;;;;5309885;28;20118;-67
2022/03/20 10:27:00;;;;;;;28.10;19.60;;;;;;;;;;5323597;28;20047;-69
2022/03/20 10:29:33;;;;;;;27.42;17.95;;;;;;;;;;5325950;28;20074;-68
2022/03/20 10:32:08;;;;;;;29.55;19.90;;;;;;;;;;5324949;28;20657;-68
2022/03/20 10:34:54;;;;;;;30.30;19.77;;;;;;;;;;5325922;28;20038;-68
2022/03/20 10:37:43;;;;;;;25.95;19.08;;;;;;;;;;5322071;28;20016;-68
2022/03/20 10:40:19;;;;;;;29.75;20.35;;;;;;;;;;5304797;28;20024;-68
2022/03/20 10:43:10;;;;;;;27.05;21.50;;;;;;;;;;5304935;28;20068;-68
2022/03/20 10:45:54;;;;;;;31.58;22.63;;;;;;;;;;5305451;28;20035;-68
2022/03/20 10:48:36;;;;;;;30.75;21.30;;;;;;;;;;5305407;28;20028;-68
2022/03/20 10:51:07;;;;;;;28.45;20.60;;;;;;;;;;5305010;28;20066;-68
2022/03/20 10:53:53;;;;;;;28.75;21.70;;;;;;;;;;5304239;28;20020;-68
2022/03/20 10:56:24;;;;;;;29.35;21.65;;;;;;;;;;5305156;28;20074;-67
2022/03/20 10:58:55;;;;;;;29.95;22.05;;;;;;;;;;5304701;28;20356;-68
2022/03/20 11:01:33;;;;;;;29.60;22.70;;;;;;;;;;5304349;28;20023;-68
2022/03/20 11:04:05;;;;;;;30.65;22.92;;;;;;;;;;5304630;28;20070;-69
2022/03/20 11:06:36;;;;;;;27.83;21.67;;;;;;;;;;5305172;28;20020;-68
2022/03/20 11:09:08;;;;;;;30.88;22.58;;;;;;;;;;5304097;28;20050;-68
2022/03/20 11:11:50;;;;;;;30.02;21.80;;;;;;;;;;5304515;28;20313;-69
2022/03/20 11:14:22;;;;;;;32.13;22.77;;;;;;;;;;5303967;28;20159;-69
2022/03/20 11:17:00;;;;;;;31.15;22.73;;;;;;;;;;5304462;28;20538;-69
2022/03/20 11:19:33;;;;;;;32.80;22.97;;;;;;;;;;5304749;28;20093;-70
2022/03/20 11:22:05;;;;;;;31.83;23.30;;;;;;;;;;5303946;28;20277;-69
2022/03/20 11:24:37;;;;;;;33.20;23.80;;;;;;;;;;5304389;28;20028;-69
2022/03/20 11:27:11;;;;;;;35.42;24.23;;;;;;;;;;5304546;28;20382;-69
2022/03/20 11:29:50;;;;;;;32.25;22.90;;;;;;;;;;5303600;28;20024;-69
2022/03/20 11:32:21;;;;;;;;;;;;;;;;;;5300767;28;20039;-69
2022/03/20 11:34:53;;;;;;;32.65;22.05;;;;;;;;;;5303582;28;20255;-69
2022/03/20 11:37:40;;;;;;;32.13;22.05;;;;;;;;;;5302692;28;20305;-69
2022/03/20 11:40:12;;;;;;;30.95;24.02;;;;;;;;;;5303700;28;20036;-68
2022/03/20 11:42:44;;;;;;;29.17;21.75;;;;;;;;;;5303153;28;20027;-68
2022/03/20 11:45:20;;;;;;;26.88;21.42;;;;;;;;;;5304050;28;20020;-67
2022/03/20 11:47:51;;;;;;;27.83;21.50;;;;;;;;;;5298787;28;20024;-67
2022/03/20 11:50:26;;;;;;;33.05;22.55;;;;;;;;;;5303261;28;20106;-68
2022/03/20 11:53:01;;;;;;;34.25;21.98;;;;;;;;;;5303913;28;20375;-68
2022/03/20 11:55:36;;;;;;;28.20;21.88;;;;;;;;;;5303942;28;20032;-69
2022/03/20 11:58:12;;;;;;;29.15;21.80;;;;;;;;;;5311055;28;20027;-70
2022/03/20 12:00:44;;;;;;;29.70;21.73;;;;;;;;;;5324843;28;20473;-67
2022/03/20 12:03:15;;;;;;;29.90;22.20;;;;;;;;;;5324566;28;20042;-69
2022/03/20 12:05:56;;;;;;;30.58;21.10;;;;;;;;;;5324410;28;20413;-67
2022/03/20 12:08:42;;;;;;;30.45;21.23;;;;;;;;;;5324999;28;20024;-68
2022/03/20 12:11:23;;;;;;;29.40;21.73;;;;;;;;;;5324237;28;20020;-69
2022/03/20 12:14:13;;;;;;;32.53;22.40;;;;;;;;;;5323885;28;20043;-69
2022/03/20 12:16:45;;;;;;;27.05;20.95;;;;;;;;;;5324113;28;20046;-68
2022/03/20 12:19:17;;;;;;;28.80;21.50;;;;;;;;;;5323904;28;20020;-69
2022/03/20 12:21:55;;;;;;;27.52;20.90;;;;;;;;;;5323071;28;20054;-69
2022/03/20 12:24:36;;;;;;;30.60;21.10;;;;;;;;;;5323461;28;20040;-69
2022/03/20 12:27:19;;;;;;;30.77;22.23;;;;;;;;;;5324433;28;20120;-69
2022/03/20 12:29:51;;;;;;;27.70;21.23;;;;;;;;;;5324053;28;20169;-69
2022/03/20 12:32:23;;;;;;;27.88;20.52;;;;;;;;;;5323808;28;20107;-70
2022/03/20 12:35:02;;;;;;;29.13;21.67;;;;;;;;;;5324204;28;20458;-69
2022/03/20 12:37:35;;;;;;;27.17;20.67;;;;;;;;;;5324458;28;20111;-69
2022/03/20 12:40:15;;;;;;;28.45;20.67;;;;;;;;;;5323503;28;20023;-69
2022/03/20 12:43:01;;;;;;;26.15;20.45;;;;;;;;;;5324043;28;20446;-69
2022/03/20 12:45:33;;;;;;;26.48;18.67;;;;;;;;;;5323126;28;20035;-69
2022/03/20 12:48:05;;;;;;;28.17;20.35;;;;;;;;;;5324039;28;20050;-69
2022/03/20 12:50:37;;;;;;;28.65;20.35;;;;;;;;;;5323806;28;20023;-69
2022/03/20 12:53:15;;;;;;;30.15;21.13;;;;;;;;;;5323479;28;20328;-69
2022/03/20 12:55:58;;;;;;;27.98;21.05;;;;;;;;;;5323577;28;20423;-69
2022/03/20 12:58:29;;;;;;;30.15;21.70;;;;;;;;;;5323924;28;20362;-69
2022/03/20 13:01:06;;;;;;;26.75;19.50;;;;;;;;;;5322993;28;20023;-70
2022/03/20 13:03:37;;;;;;;28.85;20.90;;;;;;;;;;5324012;28;20377;-69
2022/03/20 13:06:09;;;;;;;24.67;19.92;;;;;;;;;;5323891;28;20058;-70
2022/03/20 13:08:44;;;;;;;32.83;21.95;;;;;;;;;;5322945;28;20015;-70
2022/03/20 13:14:12;;;;;;;28.20;21.40;;;;;;;;;;5322751;28;20047;-69
2022/03/20 13:16:58;;;;;;;24.90;19.38;;;;;;;;;;5323676;28;20382;-68
2022/03/20 13:19:34;;;;;;;27.73;19.88;;;;;;;;;;5323348;28;20159;-69
2022/03/20 13:22:07;;;;;;;30.48;20.80;;;;;;;;;;5322607;28;20011;-70
2022/03/20 13:24:39;;;;;;;29.42;21.10;;;;;;;;;;5323649;28;20023;-69
2022/03/20 13:27:11;;;;;;;25.70;19.70;;;;;;;;;;5323361;28;20018;-69
2022/03/20 13:29:53;;;;;;;28.92;20.85;;;;;;;;;;5322776;28;20475;-69
2022/03/20 13:32:24;;;;;;;25.45;19.63;;;;;;;;;;5323857;28;20114;-69
2022/03/20 13:34:55;;;;;;;29.63;20.58;;;;;;;;;;5322228;28;20098;-70
2022/03/20 13:37:26;;;;;;;24.15;18.83;;;;;;;;;;5323637;28;20530;-69
2022/03/20 13:39:57;;;;;;;27.45;20.20;;;;;;;;;;5323108;28;20020;-69
2022/03/20 13:42:33;;;;;;;24.98;20.02;;;;;;;;;;5322588;28;20054;-69
2022/03/20 13:45:05;;;;;;;28.30;20.70;;;;;;;;;;5323312;28;20301;-69
2022/03/20 13:47:36;;;;;;;29.38;19.45;;;;;;;;;;5323086;28;20023;-70
2022/03/20 13:50:08;;;;;;;24.42;19.73;;;;;;;;;;5322499;28;20375;-69
2022/03/20 13:52:40;;;;;;;25.40;19.92;;;;;;;;;;5323003;28;20024;-69
2022/03/20 13:55:13;;;;;;;27.38;19.35;;;;;;;;;;5323037;28;20478;-70
2022/03/20 13:57:57;;;;;;;26.65;19.58;;;;;;;;;;5322018;28;20023;-71
2022/03/20 14:00:31;;;;;;;26.27;19.27;;;;;;;;;;5324005;28;20102;-69
2022/03/20 14:03:03;;;;;;;24.02;18.73;;;;;;;;;;5326420;28;20068;-69
2022/03/20 14:05:35;;;;;;;27.92;19.38;;;;;;;;;;5327217;28;20063;-69
2022/03/20 14:08:13;;;;;;;25.50;20.17;;;;;;;;;;5327503;28;20072;-69
2022/03/20 14:10:52;;;;;;;24.33;17.95;;;;;;;;;;5326463;28;20103;-70
2022/03/20 14:13:24;;;;;;;26.77;20.92;;;;;;;;;;5327183;28;20043;-69
2022/03/20 14:16:22;;;;;;;27.77;19.73;;;;;;;;;;5326612;28;20031;-70
2022/03/20 14:18:53;;;;;;;25.40;18.77;;;;;;;;;;5322562;28;20047;-69
2022/03/20 14:21:27;;;;;;;25.10;19.95;;;;;;;;;;5327247;28;20024;-69
2022/03/20 14:24:06;;;;;;;24.25;19.33;;;;;;;;;;5325119;28;20277;-68
2022/03/20 14:26:39;;;;;;;26.35;18.70;;;;;;;;;;5327096;28;20087;-69
2022/03/20 14:29:12;;;;;;;24.10;18.55;;;;;;;;;;5326639;28;20008;-69
2022/03/20 14:40:19;;;;;;;26.92;18.73;;;;;;;;;;5326352;28;20478;-69
2022/03/20 14:42:53;;;;;;;25.52;19.60;;;;;;;;;;5326214;28;20027;-69
2022/03/20 14:45:27;;;;;;;24.25;19.02;;;;;;;;;;5325851;28;20380;-69
2022/03/20 14:47:59;;;;;;;22.80;18.42;;;;;;;;;;5326261;28;20068;-69
2022/03/20 14:50:30;;;;;;;25.73;19.48;;;;;;;;;;5326537;28;20024;-70
2022/03/20 14:53:01;;;;;;;26.08;17.58;;;;;;;;;;5325380;28;20011;-69
2022/03/20 14:55:32;;;;;;;25.35;18.42;;;;;;;;;;5325849;28;20046;-70
2022/03/20 14:58:03;;;;;;;24.08;18.65;;;;;;;;;;5326303;28;20319;-70
2022/03/20 15:00:34;;;;;;;25.85;20.35;;;;;;;;;;5325483;28;20277;-69
2022/03/20 15:03:06;;;;;;;20.48;18.27;;;;;;;;;;5326071;28;20813;-69
2022/03/20 15:05:37;;;;;;;26.38;19.65;;;;;;;;;;5325961;28;20377;-68
2022/03/20 15:13:47;;;;;;;24.95;19.15;;;;;;;;;;5323538;28;20482;-68
2022/03/20 15:16:18;;;;;;;22.63;17.77;;;;;;;;;;5326242;28;20098;-67
2022/03/20 15:18:50;;;;;;;23.13;17.95;;;;;;;;;;5325783;28;20277;-68
2022/03/20 15:21:21;;;;;;;23.63;18.27;;;;;;;;;;5325499;28;20040;-70
2022/03/20 15:23:52;;;;;;;28.33;19.17;;;;;;;;;;5325516;28;20073;-69
2022/03/20 15:26:24;;;;;;;23.08;18.75;;;;;;;;;;5312728;28;20035;-69
2022/03/20 15:28:55;;;;;;;26.73;18.95;;;;;;;;;;5318186;28;20076;-69
2022/03/20 15:31:26;;;;;;;25.55;18.10;;;;;;;;;;5325271;28;20030;-69
2022/03/20 15:33:58;;;;;;;21.98;18.27;;;;;;;;;;5324095;28;20466;-69
2022/03/20 15:36:35;;;;;;;21.73;18.45;;;;;;;;;;5323880;28;20042;-69
2022/03/20 15:39:13;;;;;;;25.20;19.15;;;;;;;;;;5312447;28;20106;-67
2022/03/20 15:41:45;;;;;;;22.05;18.10;;;;;;;;;;5301675;28;20024;-67
2022/03/20 15:44:16;;;;;;;22.52;18.05;;;;;;;;;;5303057;28;20031;-67
2022/03/20 15:46:48;;;;;;;21.13;17.02;;;;;;;;;;5302371;28;20024;-69
2022/03/20 15:49:19;;;;;;;23.50;17.17;;;;;;;;;;5302002;28;20467;-68
2022/03/20 15:51:51;;;;;;;22.20;17.25;;;;;;;;;;5302671;28;20091;-68